Terminal Aerodrome Forecast
Issued by NWS

Home | Current Version | Previous Version | Text Only | Print | Product List | Glossary On
Versions: 1 2 3 4 5 6 7 8 9 10 11 12 13 14 15 16
123
FTUS43 KGRR 170240 AAA
TAFJXN
TAF AMD
KJXN 170240Z 1703/1724 12009KT 2SM -RA BR OVC003
      TEMPO 1703/1707 1 1/2SM -FZRA BR
     FM171300 21007KT 3/4SM BR VCSH OVC002=

USA.gov is the U.S. government's official web portal to all federal, state and local government web resources and services.